sensor_id;sensor_type;location;lat;lon;timestamp;P1;durP1;ratioP1;P2;durP2;ratioP2
64313;SDS011;50650;48.180;11.524;2023-11-19T00:01:00;3.08;;;1.35;;
64313;SDS011;50650;48.180;11.524;2023-11-19T00:03:28;2.08;;;1.20;;
64313;SDS011;50650;48.180;11.524;2023-11-19T00:06:01;1.30;;;0.95;;
64313;SDS011;50650;48.180;11.524;2023-11-19T00:08:28;2.33;;;1.42;;
64313;SDS011;50650;48.180;11.524;2023-11-19T00:10:54;3.97;;;1.73;;
64313;SDS011;50650;48.180;11.524;2023-11-19T00:13:21;2.22;;;1.27;;
64313;SDS011;50650;48.180;11.524;2023-11-19T00:15:48;2.10;;;1.20;;
64313;SDS011;50650;48.180;11.524;2023-11-19T00:18:14;2.75;;;1.45;;
64313;SDS011;50650;48.180;11.524;2023-11-19T00:20:44;2.40;;;1.30;;
64313;SDS011;50650;48.180;11.524;2023-11-19T00:23:11;4.28;;;1.67;;
64313;SDS011;50650;48.180;11.524;2023-11-19T00:25:37;2.25;;;1.70;;
64313;SDS011;50650;48.180;11.524;2023-11-19T00:28:04;2.42;;;1.55;;
64313;SDS011;50650;48.180;11.524;2023-11-19T00:30:31;2.53;;;1.50;;
64313;SDS011;50650;48.180;11.524;2023-11-19T00:32:57;2.28;;;1.50;;
64313;SDS011;50650;48.180;11.524;2023-11-19T00:35:30;3.40;;;1.52;;
64313;SDS011;50650;48.180;11.524;2023-11-19T00:37:59;2.20;;;1.50;;
64313;SDS011;50650;48.180;11.524;2023-11-19T00:40:26;2.70;;;1.30;;
64313;SDS011;50650;48.180;11.524;2023-11-19T00:42:52;2.65;;;1.65;;
64313;SDS011;50650;48.180;11.524;2023-11-19T00:45:18;2.80;;;1.30;;
64313;SDS011;50650;48.180;11.524;2023-11-19T00:47:45;2.05;;;1.50;;
64313;SDS011;50650;48.180;11.524;2023-11-19T00:50:12;2.75;;;1.75;;
64313;SDS011;50650;48.180;11.524;2023-11-19T00:52:38;2.28;;;1.85;;
64313;SDS011;50650;48.180;11.524;2023-11-19T00:55:07;2.28;;;1.60;;
64313;SDS011;50650;48.180;11.524;2023-11-19T00:57:33;1.75;;;1.35;;
64313;SDS011;50650;48.180;11.524;2023-11-19T01:00:00;2.90;;;1.42;;
64313;SDS011;50650;48.180;11.524;2023-11-19T01:02:28;2.75;;;1.63;;
64313;SDS011;50650;48.180;11.524;2023-11-19T01:05:02;1.85;;;1.30;;
64313;SDS011;50650;48.180;11.524;2023-11-19T01:07:28;4.75;;;1.80;;
64313;SDS011;50650;48.180;11.524;2023-11-19T01:09:55;2.15;;;1.52;;
64313;SDS011;50650;48.180;11.524;2023-11-19T01:12:22;2.95;;;1.45;;
64313;SDS011;50650;48.180;11.524;2023-11-19T01:14:49;4.13;;;1.48;;
64313;SDS011;50650;48.180;11.524;2023-11-19T01:17:16;2.80;;;1.27;;
64313;SDS011;50650;48.180;11.524;2023-11-19T01:19:42;2.03;;;1.40;;
64313;SDS011;50650;48.180;11.524;2023-11-19T01:22:11;2.42;;;1.27;;
64313;SDS011;50650;48.180;11.524;2023-11-19T01:24:38;1.90;;;1.30;;
64313;SDS011;50650;48.180;11.524;2023-11-19T01:27:04;4.38;;;1.30;;
64313;SDS011;50650;48.180;11.524;2023-11-19T01:29:32;1.85;;;0.98;;
64313;SDS011;50650;48.180;11.524;2023-11-19T01:31:58;2.15;;;1.02;;
64313;SDS011;50650;48.180;11.524;2023-11-19T01:34:27;2.15;;;1.13;;
64313;SDS011;50650;48.180;11.524;2023-11-19T01:36:54;1.30;;;0.93;;
64313;SDS011;50650;48.180;11.524;2023-11-19T01:39:20;2.08;;;1.20;;
64313;SDS011;50650;48.180;11.524;2023-11-19T01:41:47;2.00;;;0.90;;
64313;SDS011;50650;48.180;11.524;2023-11-19T01:44:16;2.65;;;1.27;;
64313;SDS011;50650;48.180;11.524;2023-11-19T01:46:44;1.67;;;1.00;;
64313;SDS011;50650;48.180;11.524;2023-11-19T01:49:14;2.53;;;1.08;;
64313;SDS011;50650;48.180;11.524;2023-11-19T01:51:40;1.88;;;0.73;;
64313;SDS011;50650;48.180;11.524;2023-11-19T01:54:07;1.55;;;0.90;;
64313;SDS011;50650;48.180;11.524;2023-11-19T01:56:36;1.52;;;0.82;;
64313;SDS011;50650;48.180;11.524;2023-11-19T01:59:03;1.52;;;0.80;;
64313;SDS011;50650;48.180;11.524;2023-11-19T02:01:30;1.65;;;0.73;;
64313;SDS011;50650;48.180;11.524;2023-11-19T02:03:59;2.10;;;1.00;;
64313;SDS011;50650;48.180;11.524;2023-11-19T02:06:28;1.30;;;0.70;;
64313;SDS011;50650;48.180;11.524;2023-11-19T02:08:54;2.53;;;1.30;;
64313;SDS011;50650;48.180;11.524;2023-11-19T02:11:30;1.65;;;0.80;;
64313;SDS011;50650;48.180;11.524;2023-11-19T02:13:57;1.02;;;0.73;;
64313;SDS011;50650;48.180;11.524;2023-11-19T02:16:23;2.45;;;0.70;;
64313;SDS011;50650;48.180;11.524;2023-11-19T02:18:50;1.27;;;0.68;;
64313;SDS011;50650;48.180;11.524;2023-11-19T02:21:22;1.33;;;0.85;;
64313;SDS011;50650;48.180;11.524;2023-11-19T02:23:48;1.63;;;0.82;;
64313;SDS011;50650;48.180;11.524;2023-11-19T02:26:17;1.58;;;0.90;;
64313;SDS011;50650;48.180;11.524;2023-11-19T02:28:46;1.13;;;0.73;;
64313;SDS011;50650;48.180;11.524;2023-11-19T02:31:12;1.42;;;0.80;;
64313;SDS011;50650;48.180;11.524;2023-11-19T02:33:39;1.30;;;0.80;;
64313;SDS011;50650;48.180;11.524;2023-11-19T02:36:06;1.30;;;0.70;;
64313;SDS011;50650;48.180;11.524;2023-11-19T02:38:33;1.42;;;0.73;;
64313;SDS011;50650;48.180;11.524;2023-11-19T02:41:02;1.02;;;0.57;;
64313;SDS011;50650;48.180;11.524;2023-11-19T02:43:30;1.33;;;0.60;;
64313;SDS011;50650;48.180;11.524;2023-11-19T02:45:59;0.98;;;0.40;;
64313;SDS011;50650;48.180;11.524;2023-11-19T02:48:29;1.48;;;0.70;;
64313;SDS011;50650;48.180;11.524;2023-11-19T02:50:55;1.25;;;0.70;;
64313;SDS011;50650;48.180;11.524;2023-11-19T02:53:23;3.30;;;0.40;;
64313;SDS011;50650;48.180;11.524;2023-11-19T02:55:52;0.90;;;0.60;;
64313;SDS011;50650;48.180;11.524;2023-11-19T02:58:25;1.60;;;0.80;;
64313;SDS011;50650;48.180;11.524;2023-11-19T03:00:56;0.80;;;0.60;;
64313;SDS011;50650;48.180;11.524;2023-11-19T03:03:28;1.25;;;0.50;;
64313;SDS011;50650;48.180;11.524;2023-11-19T03:05:56;1.58;;;0.60;;
64313;SDS011;50650;48.180;11.524;2023-11-19T03:08:24;1.20;;;0.60;;
64313;SDS011;50650;48.180;11.524;2023-11-19T03:10:50;1.13;;;0.60;;
64313;SDS011;50650;48.180;11.524;2023-11-19T03:13:16;1.17;;;0.70;;
64313;SDS011;50650;48.180;11.524;2023-11-19T03:15:45;3.63;;;0.80;;
64313;SDS011;50650;48.180;11.524;2023-11-19T03:18:15;1.92;;;0.80;;
64313;SDS011;50650;48.180;11.524;2023-11-19T03:20:43;1.75;;;0.50;;
64313;SDS011;50650;48.180;11.524;2023-11-19T03:23:12;2.30;;;0.80;;
64313;SDS011;50650;48.180;11.524;2023-11-19T03:25:39;1.63;;;0.47;;
64313;SDS011;50650;48.180;11.524;2023-11-19T03:28:08;1.33;;;0.70;;
64313;SDS011;50650;48.180;11.524;2023-11-19T03:30:36;1.27;;;0.50;;
64313;SDS011;50650;48.180;11.524;2023-11-19T03:33:03;0.77;;;0.25;;
64313;SDS011;50650;48.180;11.524;2023-11-19T03:35:29;0.88;;;0.40;;
64313;SDS011;50650;48.180;11.524;2023-11-19T03:38:05;0.60;;;0.40;;
64313;SDS011;50650;48.180;11.524;2023-11-19T03:40:32;0.43;;;0.28;;
64313;SDS011;50650;48.180;11.524;2023-11-19T03:42:58;0.50;;;0.30;;
64313;SDS011;50650;48.180;11.524;2023-11-19T03:45:25;0.52;;;0.30;;
64313;SDS011;50650;48.180;11.524;2023-11-19T03:47:51;0.47;;;0.30;;
64313;SDS011;50650;48.180;11.524;2023-11-19T03:50:18;0.40;;;0.25;;
64313;SDS011;50650;48.180;11.524;2023-11-19T03:52:45;0.88;;;0.20;;
64313;SDS011;50650;48.180;11.524;2023-11-19T03:55:13;0.50;;;0.32;;
64313;SDS011;50650;48.180;11.524;2023-11-19T03:57:39;0.55;;;0.25;;
64313;SDS011;50650;48.180;11.524;2023-11-19T04:00:09;0.30;;;0.20;;
64313;SDS011;50650;48.180;11.524;2023-11-19T04:02:39;0.38;;;0.20;;
64313;SDS011;50650;48.180;11.524;2023-11-19T04:05:05;0.57;;;0.30;;
64313;SDS011;50650;48.180;11.524;2023-11-19T04:07:35;0.20;;;0.10;;
64313;SDS011;50650;48.180;11.524;2023-11-19T04:10:02;0.20;;;0.20;;
64313;SDS011;50650;48.180;11.524;2023-11-19T04:12:36;1.23;;;0.30;;
64313;SDS011;50650;48.180;11.524;2023-11-19T04:15:03;0.60;;;0.30;;
64313;SDS011;50650;48.180;11.524;2023-11-19T04:17:30;0.40;;;0.20;;
64313;SDS011;50650;48.180;11.524;2023-11-19T04:19:57;0.60;;;0.20;;
64313;SDS011;50650;48.180;11.524;2023-11-19T04:22:23;1.00;;;0.52;;
64313;SDS011;50650;48.180;11.524;2023-11-19T04:24:51;0.80;;;0.32;;
64313;SDS011;50650;48.180;11.524;2023-11-19T04:27:17;0.60;;;0.38;;
64313;SDS011;50650;48.180;11.524;2023-11-19T04:29:45;0.40;;;0.20;;
64313;SDS011;50650;48.180;11.524;2023-11-19T04:32:12;0.98;;;0.38;;
64313;SDS011;50650;48.180;11.524;2023-11-19T04:34:38;0.70;;;0.40;;
64313;SDS011;50650;48.180;11.524;2023-11-19T04:37:05;1.25;;;0.30;;
64313;SDS011;50650;48.180;11.524;2023-11-19T04:39:31;0.65;;;0.40;;
64313;SDS011;50650;48.180;11.524;2023-11-19T04:42:01;1.10;;;0.30;;
64313;SDS011;50650;48.180;11.524;2023-11-19T04:44:30;1.08;;;0.40;;
64313;SDS011;50650;48.180;11.524;2023-11-19T04:47:01;0.95;;;0.40;;
64313;SDS011;50650;48.180;11.524;2023-11-19T04:49:27;3.92;;;0.40;;
64313;SDS011;50650;48.180;11.524;2023-11-19T04:51:55;0.82;;;0.40;;
64313;SDS011;50650;48.180;11.524;2023-11-19T04:54:21;0.25;;;0.20;;
64313;SDS011;50650;48.180;11.524;2023-11-19T04:56:49;1.13;;;0.38;;
64313;SDS011;50650;48.180;11.524;2023-11-19T04:59:16;0.60;;;0.30;;
64313;SDS011;50650;48.180;11.524;2023-11-19T05:01:46;0.60;;;0.30;;
64313;SDS011;50650;48.180;11.524;2023-11-19T05:04:14;0.73;;;0.40;;
64313;SDS011;50650;48.180;11.524;2023-11-19T05:06:40;2.53;;;0.40;;
64313;SDS011;50650;48.180;11.524;2023-11-19T05:09:07;0.95;;;0.50;;
64313;SDS011;50650;48.180;11.524;2023-11-19T05:11:34;0.50;;;0.40;;
64313;SDS011;50650;48.180;11.524;2023-11-19T05:14:02;1.05;;;0.40;;
64313;SDS011;50650;48.180;11.524;2023-11-19T05:16:31;0.70;;;0.40;;
64313;SDS011;50650;48.180;11.524;2023-11-19T05:18:58;0.52;;;0.30;;
64313;SDS011;50650;48.180;11.524;2023-11-19T05:21:26;0.77;;;0.40;;
64313;SDS011;50650;48.180;11.524;2023-11-19T05:23:58;0.32;;;0.22;;
64313;SDS011;50650;48.180;11.524;2023-11-19T05:26:26;1.77;;;0.30;;
64313;SDS011;50650;48.180;11.524;2023-11-19T05:28:55;1.48;;;0.30;;
64313;SDS011;50650;48.180;11.524;2023-11-19T05:31:22;0.82;;;0.40;;
64313;SDS011;50650;48.180;11.524;2023-11-19T05:33:48;0.50;;;0.30;;
64313;SDS011;50650;48.180;11.524;2023-11-19T05:36:15;2.15;;;0.40;;
64313;SDS011;50650;48.180;11.524;2023-11-19T05:38:45;1.05;;;0.68;;
64313;SDS011;50650;48.180;11.524;2023-11-19T05:41:11;0.75;;;0.30;;
64313;SDS011;50650;48.180;11.524;2023-11-19T05:43:38;0.63;;;0.40;;
64313;SDS011;50650;48.180;11.524;2023-11-19T05:46:07;1.73;;;0.35;;
64313;SDS011;50650;48.180;11.524;2023-11-19T05:48:34;1.75;;;0.32;;
64313;SDS011;50650;48.180;11.524;2023-11-19T05:51:00;1.75;;;0.60;;
64313;SDS011;50650;48.180;11.524;2023-11-19T05:53:28;0.35;;;0.30;;
64313;SDS011;50650;48.180;11.524;2023-11-19T05:55:55;0.88;;;0.40;;
64313;SDS011;50650;48.180;11.524;2023-11-19T05:58:23;1.25;;;0.45;;
64313;SDS011;50650;48.180;11.524;2023-11-19T06:00:51;0.80;;;0.30;;
64313;SDS011;50650;48.180;11.524;2023-11-19T06:03:17;0.40;;;0.40;;
64313;SDS011;50650;48.180;11.524;2023-11-19T06:05:44;0.70;;;0.40;;
64313;SDS011;50650;48.180;11.524;2023-11-19T06:08:19;0.98;;;0.38;;
64313;SDS011;50650;48.180;11.524;2023-11-19T06:10:46;0.30;;;0.30;;
64313;SDS011;50650;48.180;11.524;2023-11-19T06:13:16;0.70;;;0.40;;
64313;SDS011;50650;48.180;11.524;2023-11-19T06:15:42;0.73;;;0.45;;
64313;SDS011;50650;48.180;11.524;2023-11-19T06:18:09;0.40;;;0.38;;
64313;SDS011;50650;48.180;11.524;2023-11-19T06:20:36;0.50;;;0.30;;
64313;SDS011;50650;48.180;11.524;2023-11-19T06:23:03;0.70;;;0.50;;
64313;SDS011;50650;48.180;11.524;2023-11-19T06:25:32;0.20;;;0.20;;
64313;SDS011;50650;48.180;11.524;2023-11-19T06:28:00;0.50;;;0.20;;
64313;SDS011;50650;48.180;11.524;2023-11-19T06:30:31;0.30;;;0.30;;
64313;SDS011;50650;48.180;11.524;2023-11-19T06:32:57;2.35;;;0.40;;
64313;SDS011;50650;48.180;11.524;2023-11-19T06:35:24;0.63;;;0.30;;
64313;SDS011;50650;48.180;11.524;2023-11-19T06:37:50;1.30;;;0.38;;
64313;SDS011;50650;48.180;11.524;2023-11-19T06:40:17;0.40;;;0.40;;
64313;SDS011;50650;48.180;11.524;2023-11-19T06:42:43;1.10;;;0.30;;
64313;SDS011;50650;48.180;11.524;2023-11-19T06:45:09;0.30;;;0.20;;
64313;SDS011;50650;48.180;11.524;2023-11-19T06:47:37;1.90;;;0.30;;
64313;SDS011;50650;48.180;11.524;2023-11-19T06:50:07;0.35;;;0.30;;
64313;SDS011;50650;48.180;11.524;2023-11-19T06:52:34;1.23;;;0.68;;
64313;SDS011;50650;48.180;11.524;2023-11-19T06:55:13;0.55;;;0.40;;
64313;SDS011;50650;48.180;11.524;2023-11-19T06:57:40;0.60;;;0.35;;
64313;SDS011;50650;48.180;11.524;2023-11-19T07:00:07;0.88;;;0.30;;
64313;SDS011;50650;48.180;11.524;2023-11-19T07:02:37;0.40;;;0.20;;
64313;SDS011;50650;48.180;11.524;2023-11-19T07:05:04;0.40;;;0.38;;
64313;SDS011;50650;48.180;11.524;2023-11-19T07:07:31;0.30;;;0.20;;
64313;SDS011;50650;48.180;11.524;2023-11-19T07:10:01;0.90;;;0.30;;
64313;SDS011;50650;48.180;11.524;2023-11-19T07:12:29;0.30;;;0.20;;
64313;SDS011;50650;48.180;11.524;2023-11-19T07:14:59;0.70;;;0.30;;
64313;SDS011;50650;48.180;11.524;2023-11-19T07:17:30;0.47;;;0.30;;
64313;SDS011;50650;48.180;11.524;2023-11-19T07:19:58;0.47;;;0.30;;
64313;SDS011;50650;48.180;11.524;2023-11-19T07:22:27;1.02;;;0.40;;
64313;SDS011;50650;48.180;11.524;2023-11-19T07:24:55;0.65;;;0.25;;
64313;SDS011;50650;48.180;11.524;2023-11-19T07:27:21;1.45;;;0.50;;
64313;SDS011;50650;48.180;11.524;2023-11-19T07:29:49;0.28;;;0.20;;
64313;SDS011;50650;48.180;11.524;2023-11-19T07:32:16;0.82;;;0.40;;
64313;SDS011;50650;48.180;11.524;2023-11-19T07:34:43;0.63;;;0.20;;
64313;SDS011;50650;48.180;11.524;2023-11-19T07:37:13;0.38;;;0.30;;
64313;SDS011;50650;48.180;11.524;2023-11-19T07:39:42;0.43;;;0.30;;
64313;SDS011;50650;48.180;11.524;2023-11-19T07:42:11;2.60;;;0.30;;
64313;SDS011;50650;48.180;11.524;2023-11-19T07:44:38;0.20;;;0.20;;
64313;SDS011;50650;48.180;11.524;2023-11-19T07:47:04;0.82;;;0.20;;
64313;SDS011;50650;48.180;11.524;2023-11-19T07:49:31;0.55;;;0.20;;
64313;SDS011;50650;48.180;11.524;2023-11-19T07:52:00;1.77;;;0.30;;
64313;SDS011;50650;48.180;11.524;2023-11-19T07:54:29;0.57;;;0.20;;
64313;SDS011;50650;48.180;11.524;2023-11-19T07:57:01;0.52;;;0.22;;
64313;SDS011;50650;48.180;11.524;2023-11-19T07:59:28;2.45;;;0.30;;
64313;SDS011;50650;48.180;11.524;2023-11-19T08:01:54;0.47;;;0.40;;
64313;SDS011;50650;48.180;11.524;2023-11-19T08:04:21;0.52;;;0.30;;
64313;SDS011;50650;48.180;11.524;2023-11-19T08:06:47;1.77;;;0.30;;
64313;SDS011;50650;48.180;11.524;2023-11-19T08:09:14;0.57;;;0.50;;
64313;SDS011;50650;48.180;11.524;2023-11-19T08:11:42;0.70;;;0.30;;
64313;SDS011;50650;48.180;11.524;2023-11-19T08:14:12;0.30;;;0.30;;
64313;SDS011;50650;48.180;11.524;2023-11-19T08:16:40;0.30;;;0.30;;
64313;SDS011;50650;48.180;11.524;2023-11-19T08:19:07;1.38;;;0.40;;
64313;SDS011;50650;48.180;11.524;2023-11-19T08:21:34;0.60;;;0.30;;
64313;SDS011;50650;48.180;11.524;2023-11-19T08:24:00;0.40;;;0.30;;
64313;SDS011;50650;48.180;11.524;2023-11-19T08:26:34;0.50;;;0.40;;
64313;SDS011;50650;48.180;11.524;2023-11-19T08:29:02;0.88;;;0.38;;
64313;SDS011;50650;48.180;11.524;2023-11-19T08:31:28;0.38;;;0.30;;
64313;SDS011;50650;48.180;11.524;2023-11-19T08:33:55;0.65;;;0.30;;
64313;SDS011;50650;48.180;11.524;2023-11-19T08:36:21;0.38;;;0.30;;
64313;SDS011;50650;48.180;11.524;2023-11-19T08:38:48;0.40;;;0.22;;
64313;SDS011;50650;48.180;11.524;2023-11-19T08:41:14;0.98;;;0.30;;
64313;SDS011;50650;48.180;11.524;2023-11-19T08:43:42;0.98;;;0.40;;
64313;SDS011;50650;48.180;11.524;2023-11-19T08:46:20;0.73;;;0.32;;
64313;SDS011;50650;48.180;11.524;2023-11-19T08:48:47;2.08;;;0.57;;
64313;SDS011;50650;48.180;11.524;2023-11-19T08:51:13;1.00;;;0.60;;
64313;SDS011;50650;48.180;11.524;2023-11-19T08:53:45;0.30;;;0.30;;
64313;SDS011;50650;48.180;11.524;2023-11-19T08:56:11;0.40;;;0.40;;
64313;SDS011;50650;48.180;11.524;2023-11-19T08:58:40;0.80;;;0.30;;
64313;SDS011;50650;48.180;11.524;2023-11-19T09:01:06;0.55;;;0.35;;
64313;SDS011;50650;48.180;11.524;2023-11-19T09:03:39;0.40;;;0.40;;
64313;SDS011;50650;48.180;11.524;2023-11-19T09:06:05;0.45;;;0.20;;
64313;SDS011;50650;48.180;11.524;2023-11-19T09:08:32;0.88;;;0.40;;
64313;SDS011;50650;48.180;11.524;2023-11-19T09:11:01;0.30;;;0.25;;
64313;SDS011;50650;48.180;11.524;2023-11-19T09:13:33;2.85;;;0.30;;
64313;SDS011;50650;48.180;11.524;2023-11-19T09:16:02;0.80;;;0.38;;
64313;SDS011;50650;48.180;11.524;2023-11-19T09:18:29;0.63;;;0.52;;
64313;SDS011;50650;48.180;11.524;2023-11-19T09:21:03;6.22;;;4.15;;
64313;SDS011;50650;48.180;11.524;2023-11-19T09:26:04;2.00;;;1.25;;
64313;SDS011;50650;48.180;11.524;2023-11-19T09:28:33;1.30;;;0.88;;
64313;SDS011;50650;48.180;11.524;2023-11-19T09:31:00;2.63;;;0.40;;
64313;SDS011;50650;48.180;11.524;2023-11-19T09:33:32;0.28;;;0.28;;
64313;SDS011;50650;48.180;11.524;2023-11-19T09:36:04;0.88;;;0.47;;
64313;SDS011;50650;48.180;11.524;2023-11-19T09:38:31;0.63;;;0.38;;
64313;SDS011;50650;48.180;11.524;2023-11-19T09:40:58;1.27;;;0.40;;
64313;SDS011;50650;48.180;11.524;2023-11-19T09:43:24;0.80;;;0.60;;
64313;SDS011;50650;48.180;11.524;2023-11-19T09:45:53;1.38;;;0.40;;
64313;SDS011;50650;48.180;11.524;2023-11-19T09:48:21;1.33;;;0.60;;
64313;SDS011;50650;48.180;11.524;2023-11-19T09:50:50;1.02;;;0.65;;
64313;SDS011;50650;48.180;11.524;2023-11-19T09:53:19;0.90;;;0.80;;
64313;SDS011;50650;48.180;11.524;2023-11-19T09:55:46;2.10;;;0.45;;
64313;SDS011;50650;48.180;11.524;2023-11-19T09:58:13;1.98;;;0.50;;
64313;SDS011;50650;48.180;11.524;2023-11-19T10:00:40;0.93;;;0.50;;
64313;SDS011;50650;48.180;11.524;2023-11-19T10:03:09;0.52;;;0.50;;
64313;SDS011;50650;48.180;11.524;2023-11-19T10:05:40;0.70;;;0.50;;
64313;SDS011;50650;48.180;11.524;2023-11-19T10:08:06;0.50;;;0.30;;
64313;SDS011;50650;48.180;11.524;2023-11-19T10:10:35;0.90;;;0.52;;
64313;SDS011;50650;48.180;11.524;2023-11-19T10:13:05;2.05;;;0.40;;
64313;SDS011;50650;48.180;11.524;2023-11-19T10:15:35;0.35;;;0.28;;
64313;SDS011;50650;48.180;11.524;2023-11-19T10:18:02;1.48;;;0.43;;
64313;SDS011;50650;48.180;11.524;2023-11-19T10:20:29;0.85;;;0.50;;
64313;SDS011;50650;48.180;11.524;2023-11-19T10:23:09;0.38;;;0.30;;
64313;SDS011;50650;48.180;11.524;2023-11-19T10:25:37;1.15;;;0.45;;
64313;SDS011;50650;48.180;11.524;2023-11-19T10:28:04;0.30;;;0.30;;
64313;SDS011;50650;48.180;11.524;2023-11-19T10:30:30;1.10;;;0.63;;
64313;SDS011;50650;48.180;11.524;2023-11-19T10:33:08;1.38;;;0.60;;
64313;SDS011;50650;48.180;11.524;2023-11-19T10:35:35;1.55;;;0.47;;
64313;SDS011;50650;48.180;11.524;2023-11-19T10:38:12;2.25;;;0.50;;
64313;SDS011;50650;48.180;11.524;2023-11-19T10:40:41;3.55;;;0.50;;
64313;SDS011;50650;48.180;11.524;2023-11-19T10:43:08;0.60;;;0.40;;
64313;SDS011;50650;48.180;11.524;2023-11-19T10:45:35;2.00;;;0.50;;
64313;SDS011;50650;48.180;11.524;2023-11-19T10:48:02;1.35;;;0.38;;
64313;SDS011;50650;48.180;11.524;2023-11-19T10:50:31;1.92;;;0.50;;
64313;SDS011;50650;48.180;11.524;2023-11-19T10:52:58;0.85;;;0.47;;
64313;SDS011;50650;48.180;11.524;2023-11-19T10:55:26;0.50;;;0.32;;
64313;SDS011;50650;48.180;11.524;2023-11-19T10:57:58;0.70;;;0.40;;
64313;SDS011;50650;48.180;11.524;2023-11-19T11:00:25;0.70;;;0.40;;
64313;SDS011;50650;48.180;11.524;2023-11-19T11:02:54;0.85;;;0.30;;
64313;SDS011;50650;48.180;11.524;2023-11-19T11:05:21;0.82;;;0.30;;
64313;SDS011;50650;48.180;11.524;2023-11-19T11:07:48;1.05;;;0.20;;
64313;SDS011;50650;48.180;11.524;2023-11-19T11:10:16;0.77;;;0.30;;
64313;SDS011;50650;48.180;11.524;2023-11-19T11:12:42;0.68;;;0.22;;
64313;SDS011;50650;48.180;11.524;2023-11-19T11:15:11;0.45;;;0.30;;
64313;SDS011;50650;48.180;11.524;2023-11-19T11:17:38;1.77;;;0.30;;
64313;SDS011;50650;48.180;11.524;2023-11-19T11:20:05;0.30;;;0.25;;
64313;SDS011;50650;48.180;11.524;2023-11-19T11:22:38;0.98;;;0.25;;
64313;SDS011;50650;48.180;11.524;2023-11-19T11:25:18;0.88;;;0.30;;
64313;SDS011;50650;48.180;11.524;2023-11-19T11:27:59;0.40;;;0.20;;
64313;SDS011;50650;48.180;11.524;2023-11-19T11:30:39;0.35;;;0.30;;
64313;SDS011;50650;48.180;11.524;2023-11-19T11:33:19;1.35;;;0.40;;
64313;SDS011;50650;48.180;11.524;2023-11-19T11:36:01;0.75;;;0.30;;
64313;SDS011;50650;48.180;11.524;2023-11-19T11:38:35;0.90;;;0.30;;
64313;SDS011;50650;48.180;11.524;2023-11-19T11:41:16;0.55;;;0.30;;
64313;SDS011;50650;48.180;11.524;2023-11-19T11:43:48;0.50;;;0.30;;
64313;SDS011;50650;48.180;11.524;2023-11-19T11:49:24;0.80;;;0.40;;
64313;SDS011;50650;48.180;11.524;2023-11-19T11:52:01;4.82;;;0.80;;
64313;SDS011;50650;48.180;11.524;2023-11-19T11:54:29;1.25;;;0.45;;
64313;SDS011;50650;48.180;11.524;2023-11-19T11:57:07;1.00;;;0.40;;
64313;SDS011;50650;48.180;11.524;2023-11-19T11:59:42;0.40;;;0.30;;
64313;SDS011;50650;48.180;11.524;2023-11-19T12:02:10;0.47;;;0.30;;
64313;SDS011;50650;48.180;11.524;2023-11-19T12:04:39;0.28;;;0.20;;
64313;SDS011;50650;48.180;11.524;2023-11-19T12:07:05;0.30;;;0.30;;
64313;SDS011;50650;48.180;11.524;2023-11-19T12:09:32;0.95;;;0.20;;
64313;SDS011;50650;48.180;11.524;2023-11-19T12:12:18;2.00;;;0.30;;
64313;SDS011;50650;48.180;11.524;2023-11-19T12:15:05;0.60;;;0.30;;
64313;SDS011;50650;48.180;11.524;2023-11-19T12:20:20;0.43;;;0.30;;
64313;SDS011;50650;48.180;11.524;2023-11-19T12:22:48;0.30;;;0.20;;
64313;SDS011;50650;48.180;11.524;2023-11-19T12:25:18;0.98;;;0.40;;
64313;SDS011;50650;48.180;11.524;2023-11-19T12:27:50;0.32;;;0.20;;
64313;SDS011;50650;48.180;11.524;2023-11-19T12:30:21;0.32;;;0.22;;
64313;SDS011;50650;48.180;11.524;2023-11-19T12:32:48;1.80;;;0.20;;
64313;SDS011;50650;48.180;11.524;2023-11-19T12:35:15;0.40;;;0.28;;
64313;SDS011;50650;48.180;11.524;2023-11-19T12:37:46;0.40;;;0.20;;
64313;SDS011;50650;48.180;11.524;2023-11-19T12:40:16;1.42;;;0.47;;
64313;SDS011;50650;48.180;11.524;2023-11-19T12:42:43;0.80;;;0.40;;
64313;SDS011;50650;48.180;11.524;2023-11-19T12:45:10;1.65;;;0.20;;
64313;SDS011;50650;48.180;11.524;2023-11-19T12:47:37;0.98;;;0.30;;
64313;SDS011;50650;48.180;11.524;2023-11-19T12:50:04;1.20;;;0.50;;
64313;SDS011;50650;48.180;11.524;2023-11-19T12:52:31;1.27;;;0.40;;
64313;SDS011;50650;48.180;11.524;2023-11-19T12:54:59;0.38;;;0.30;;
64313;SDS011;50650;48.180;11.524;2023-11-19T12:57:35;0.40;;;0.30;;
64313;SDS011;50650;48.180;11.524;2023-11-19T13:00:03;2.80;;;0.30;;
64313;SDS011;50650;48.180;11.524;2023-11-19T13:02:44;1.52;;;0.30;;
64313;SDS011;50650;48.180;11.524;2023-11-19T13:05:23;0.95;;;0.30;;
64313;SDS011;50650;48.180;11.524;2023-11-19T13:07:58;0.90;;;0.30;;
64313;SDS011;50650;48.180;11.524;2023-11-19T13:10:26;0.50;;;0.22;;
64313;SDS011;50650;48.180;11.524;2023-11-19T13:13:00;1.33;;;0.32;;
64313;SDS011;50650;48.180;11.524;2023-11-19T13:15:30;0.40;;;0.22;;
64313;SDS011;50650;48.180;11.524;2023-11-19T13:17:57;0.77;;;0.30;;
64313;SDS011;50650;48.180;11.524;2023-11-19T13:20:32;0.95;;;0.20;;
64313;SDS011;50650;48.180;11.524;2023-11-19T13:22:58;0.40;;;0.20;;
64313;SDS011;50650;48.180;11.524;2023-11-19T13:25:27;3.13;;;1.35;;
64313;SDS011;50650;48.180;11.524;2023-11-19T13:27:56;4.78;;;0.40;;
64313;SDS011;50650;48.180;11.524;2023-11-19T13:30:23;0.73;;;0.30;;
64313;SDS011;50650;48.180;11.524;2023-11-19T13:32:53;1.02;;;0.30;;
64313;SDS011;50650;48.180;11.524;2023-11-19T13:35:21;0.98;;;0.25;;
64313;SDS011;50650;48.180;11.524;2023-11-19T13:37:48;1.25;;;0.35;;
64313;SDS011;50650;48.180;11.524;2023-11-19T13:40:14;1.45;;;0.28;;
64313;SDS011;50650;48.180;11.524;2023-11-19T13:42:42;1.17;;;0.52;;
64313;SDS011;50650;48.180;11.524;2023-11-19T13:45:09;0.40;;;0.10;;
64313;SDS011;50650;48.180;11.524;2023-11-19T13:47:37;1.23;;;0.25;;
64313;SDS011;50650;48.180;11.524;2023-11-19T13:50:06;0.47;;;0.28;;
64313;SDS011;50650;48.180;11.524;2023-11-19T13:52:34;1.15;;;0.40;;
64313;SDS011;50650;48.180;11.524;2023-11-19T13:55:04;0.85;;;0.30;;
64313;SDS011;50650;48.180;11.524;2023-11-19T13:57:32;0.47;;;0.30;;
64313;SDS011;50650;48.180;11.524;2023-11-19T14:00:00;0.20;;;0.20;;
64313;SDS011;50650;48.180;11.524;2023-11-19T14:02:28;0.77;;;0.40;;
64313;SDS011;50650;48.180;11.524;2023-11-19T14:04:55;0.52;;;0.20;;
64313;SDS011;50650;48.180;11.524;2023-11-19T14:07:21;0.80;;;0.40;;
64313;SDS011;50650;48.180;11.524;2023-11-19T14:09:48;1.25;;;0.50;;
64313;SDS011;50650;48.180;11.524;2023-11-19T14:12:15;0.55;;;0.30;;
64313;SDS011;50650;48.180;11.524;2023-11-19T14:14:54;1.38;;;0.55;;
64313;SDS011;50650;48.180;11.524;2023-11-19T14:17:25;1.05;;;0.65;;
64313;SDS011;50650;48.180;11.524;2023-11-19T14:19:51;1.27;;;0.68;;
64313;SDS011;50650;48.180;11.524;2023-11-19T14:22:18;0.70;;;0.60;;
64313;SDS011;50650;48.180;11.524;2023-11-19T14:24:44;0.60;;;0.40;;
64313;SDS011;50650;48.180;11.524;2023-11-19T14:27:11;0.98;;;0.65;;
64313;SDS011;50650;48.180;11.524;2023-11-19T14:29:37;1.13;;;0.63;;
64313;SDS011;50650;48.180;11.524;2023-11-19T14:32:04;0.75;;;0.50;;
64313;SDS011;50650;48.180;11.524;2023-11-19T14:34:32;1.70;;;0.40;;
64313;SDS011;50650;48.180;11.524;2023-11-19T14:36:59;0.60;;;0.40;;
64313;SDS011;50650;48.180;11.524;2023-11-19T14:39:26;0.30;;;0.20;;
64313;SDS011;50650;48.180;11.524;2023-11-19T14:41:59;0.98;;;0.32;;
64313;SDS011;50650;48.180;11.524;2023-11-19T14:44:29;1.55;;;0.38;;
64313;SDS011;50650;48.180;11.524;2023-11-19T14:46:56;0.70;;;0.30;;
64313;SDS011;50650;48.180;11.524;2023-11-19T14:49:22;1.33;;;0.40;;